createdAt,value
2023-05-21T00:06:49.294Z,14.10
2023-05-21T00:21:51.122Z,13.50
2023-05-21T00:36:53.715Z,13.00
2023-05-21T00:51:55.906Z,12.47
2023-05-21T01:06:58.707Z,14.90
2023-05-21T01:22:08.123Z,12.80
2023-05-21T01:37:19.965Z,12.17
2023-05-21T01:52:21.887Z,12.53
2023-05-21T02:07:24.730Z,12.93
2023-05-21T02:22:26.399Z,13.40
2023-05-21T02:37:28.356Z,12.53
2023-05-21T02:52:30.123Z,10.80
2023-05-21T03:07:32.527Z,10.53
2023-05-21T03:37:35.910Z,11.77
2023-05-21T03:52:37.730Z,13.47
2023-05-21T04:07:39.786Z,14.97
2023-05-21T04:37:46.047Z,12.83
2023-05-21T04:52:47.922Z,13.30
2023-05-21T05:07:49.706Z,12.97
2023-05-21T05:22:51.475Z,13.20
2023-05-21T05:37:53.118Z,15.40
2023-05-21T05:52:54.846Z,17.27
2023-05-21T06:22:58.470Z,18.20
2023-05-21T06:38:00.204Z,18.83
2023-05-21T06:53:01.944Z,19.03
2023-05-21T07:08:03.626Z,20.70
2023-05-21T07:23:05.293Z,20.47
2023-05-21T07:38:06.988Z,22.70
2023-05-21T07:53:08.761Z,23.07
2023-05-21T08:08:11.760Z,23.70
2023-05-21T08:23:13.534Z,22.70
2023-05-21T08:38:17.080Z,20.90
2023-05-21T08:53:27.288Z,21.80
2023-05-21T09:08:34.862Z,25.17
2023-05-21T09:23:36.572Z,23.27
2023-05-21T09:38:38.753Z,24.63
2023-05-21T09:53:58.232Z,26.10
2023-05-21T10:09:05.597Z,23.67
2023-05-21T10:24:09.956Z,26.03
2023-05-21T10:39:13.026Z,24.80
2023-05-21T10:54:53.009Z,25.40
2023-05-21T11:09:56.187Z,25.43
2023-05-21T11:25:01.779Z,23.00
2023-05-21T11:40:19.756Z,23.07
2023-05-21T11:55:22.888Z,24.07
2023-05-21T12:10:24.800Z,24.20
2023-05-21T12:25:27.503Z,22.03
2023-05-21T12:40:39.568Z,24.40
2023-05-21T12:55:41.904Z,22.00
2023-05-21T13:10:43.699Z,23.60
2023-05-21T13:25:45.642Z,23.30
2023-05-21T13:40:47.423Z,21.43
2023-05-21T13:55:49.219Z,24.80
2023-05-21T14:10:52.120Z,25.57
2023-05-21T14:25:53.788Z,22.90
2023-05-21T14:40:55.775Z,23.60
2023-05-21T14:55:57.464Z,22.93
2023-05-21T15:10:59.150Z,21.43
2023-05-21T15:26:00.952Z,25.00
2023-05-21T15:41:02.726Z,24.27
2023-05-21T15:56:05.137Z,22.03
2023-05-21T16:11:06.857Z,24.10
2023-05-21T16:26:10.270Z,23.07
2023-05-21T16:41:12.024Z,22.83
2023-05-21T16:56:13.726Z,20.83
2023-05-21T17:11:17.392Z,20.60
2023-05-21T17:26:19.113Z,21.47
2023-05-21T17:41:21.806Z,22.73
2023-05-21T17:56:23.455Z,20.43
2023-05-21T18:11:26.351Z,20.23
2023-05-21T18:26:30.149Z,21.00
2023-05-21T18:41:32.134Z,18.33
2023-05-21T18:56:34.056Z,19.73
2023-05-21T19:11:37.609Z,18.60
2023-05-21T19:26:39.353Z,16.20
2023-05-21T19:41:41.054Z,17.23
2023-05-21T19:56:43.034Z,17.73
2023-05-21T20:11:44.909Z,18.37
2023-05-21T20:26:46.842Z,19.30
2023-05-21T20:41:48.583Z,17.07
2023-05-21T20:56:50.970Z,16.90
2023-05-21T21:11:52.781Z,16.23
2023-05-21T21:41:56.080Z,15.00
2023-05-21T21:56:57.903Z,15.37
2023-05-21T22:11:59.717Z,15.37
2023-05-21T22:27:01.474Z,14.77
2023-05-21T22:42:03.840Z,17.10
2023-05-21T22:57:05.737Z,15.37
2023-05-21T23:12:08.254Z,14.53
2023-05-21T23:27:10.099Z,14.27
2023-05-21T23:42:11.880Z,13.03
2023-05-21T23:57:13.882Z,14.13
